createdAt,value
2022-12-22T00:01:32.408Z,3.92
2022-12-22T00:04:17.557Z,4.13
2022-12-22T00:07:02.746Z,4.30
2022-12-22T00:09:47.465Z,4.38
2022-12-22T00:12:33.814Z,4.45
2022-12-22T00:15:18.898Z,4.32
2022-12-22T00:18:03.923Z,4.13
2022-12-22T00:20:49.107Z,4.82
2022-12-22T00:23:33.930Z,4.90
2022-12-22T00:26:19.047Z,5.40
2022-12-22T00:29:03.967Z,5.35
2022-12-22T00:31:48.743Z,5.72
2022-12-22T00:34:36.504Z,5.55
2022-12-22T00:37:21.553Z,6.05
2022-12-22T00:40:07.925Z,6.45
2022-12-22T00:42:53.406Z,6.28
2022-12-22T00:45:38.951Z,6.03
2022-12-22T00:48:25.186Z,6.38
2022-12-22T00:51:10.129Z,6.63
2022-12-22T00:53:55.185Z,7.38
2022-12-22T00:56:39.946Z,7.03
2022-12-22T00:59:25.021Z,6.70
2022-12-22T01:02:10.422Z,6.57
2022-12-22T01:04:55.484Z,6.53
2022-12-22T01:07:41.825Z,6.60
2022-12-22T01:10:31.309Z,6.50
2022-12-22T01:13:16.266Z,6.70
2022-12-22T01:16:01.413Z,6.35
2022-12-22T01:18:46.340Z,6.72
2022-12-22T01:21:31.374Z,6.30
2022-12-22T01:24:16.281Z,6.65
2022-12-22T01:27:01.306Z,6.18
2022-12-22T01:29:46.223Z,5.60
2022-12-22T01:32:32.955Z,5.82
2022-12-22T01:35:17.910Z,5.90
2022-12-22T01:38:02.805Z,5.50
2022-12-22T01:40:47.578Z,5.63
2022-12-22T01:43:38.525Z,6.20
2022-12-22T01:46:44.060Z,5.70
2022-12-22T01:49:43.879Z,5.20
2022-12-22T01:52:31.302Z,4.90
2022-12-22T01:55:19.067Z,4.78
2022-12-22T01:58:04.134Z,5.13
2022-12-22T02:00:49.015Z,5.28
2022-12-22T02:03:38.872Z,4.55
2022-12-22T02:06:48.450Z,4.80
2022-12-22T02:09:42.353Z,4.47
2022-12-22T02:12:44.376Z,4.28
2022-12-22T02:15:29.343Z,4.63
2022-12-22T02:18:25.206Z,4.85
2022-12-22T02:21:22.789Z,5.15
2022-12-22T02:24:20.078Z,5.10
2022-12-22T02:27:07.636Z,6.22
2022-12-22T02:29:55.729Z,6.00
2022-12-22T02:32:42.745Z,6.88
2022-12-22T02:35:32.851Z,5.85
2022-12-22T02:38:28.911Z,6.38
2022-12-22T02:41:31.972Z,6.22
2022-12-22T02:44:25.922Z,5.90
2022-12-22T02:47:20.721Z,6.22
2022-12-22T02:50:23.602Z,6.10
2022-12-22T02:53:09.223Z,5.90
2022-12-22T02:55:54.107Z,6.47
2022-12-22T02:58:39.224Z,6.50
2022-12-22T03:01:24.869Z,6.80
2022-12-22T03:04:10.074Z,7.40
2022-12-22T03:06:54.917Z,7.47
2022-12-22T03:09:39.574Z,7.82
2022-12-22T03:12:24.906Z,7.63
2022-12-22T03:15:09.578Z,7.22
2022-12-22T03:17:54.613Z,7.05
2022-12-22T03:20:39.708Z,7.40
2022-12-22T03:23:26.045Z,7.20
2022-12-22T03:25:55.276Z,7.28
2022-12-22T03:28:26.564Z,6.90
2022-12-22T03:30:58.044Z,7.50
2022-12-22T03:33:24.898Z,7.10
2022-12-22T03:35:51.309Z,6.93
2022-12-22T03:38:17.805Z,7.90
2022-12-22T03:40:44.669Z,7.88
2022-12-22T03:43:31.234Z,7.57
2022-12-22T03:46:09.864Z,6.93
2022-12-22T03:48:36.266Z,7.70
2022-12-22T03:51:02.622Z,7.97
2022-12-22T03:53:28.991Z,13.63
2022-12-22T03:55:55.385Z,14.77
2022-12-22T03:58:21.735Z,15.00
2022-12-22T04:00:48.107Z,7.50
2022-12-22T04:03:14.635Z,7.38
2022-12-22T04:05:41.231Z,5.45
2022-12-22T04:08:07.608Z,7.43
2022-12-22T04:10:52.617Z,9.52
2022-12-22T04:13:18.980Z,9.23
2022-12-22T04:15:45.357Z,5.68
2022-12-22T04:18:11.705Z,13.95
2022-12-22T04:20:38.079Z,22.30
2022-12-22T04:23:04.505Z,13.95
2022-12-22T04:25:30.872Z,16.30
2022-12-22T04:27:58.318Z,12.63
2022-12-22T04:30:24.684Z,7.32
2022-12-22T04:32:52.082Z,27.67
2022-12-22T04:35:18.450Z,30.20
2022-12-22T04:37:44.813Z,23.58
2022-12-22T04:40:11.245Z,13.93
2022-12-22T04:42:37.616Z,18.08
2022-12-22T04:45:04.293Z,30.30
2022-12-22T04:47:30.700Z,22.08
2022-12-22T04:49:57.141Z,21.55
2022-12-22T04:52:23.577Z,10.32
2022-12-22T04:54:50.053Z,8.90
2022-12-22T04:57:16.615Z,23.25
2022-12-22T04:59:43.019Z,20.25
2022-12-22T05:02:09.516Z,19.27
2022-12-22T05:04:36.003Z,13.70
2022-12-22T05:07:02.460Z,15.32
2022-12-22T05:09:28.818Z,13.68
2022-12-22T05:11:55.195Z,22.20
2022-12-22T05:14:21.571Z,17.73
2022-12-22T05:16:48.034Z,20.30
2022-12-22T05:19:14.455Z,18.13
2022-12-22T05:21:40.819Z,17.90
2022-12-22T05:24:07.245Z,11.02
2022-12-22T05:26:33.626Z,17.20
2022-12-22T05:29:00.048Z,16.48
2022-12-22T05:31:26.673Z,16.15
2022-12-22T05:33:53.086Z,21.88
2022-12-22T05:36:19.533Z,14.68
2022-12-22T05:38:46.168Z,17.50
2022-12-22T05:41:12.702Z,14.90
2022-12-22T05:43:39.140Z,14.43
2022-12-22T05:46:08.512Z,11.93
2022-12-22T05:48:39.092Z,7.60
2022-12-22T05:51:07.510Z,18.05
2022-12-22T05:53:33.939Z,13.43
2022-12-22T05:56:00.397Z,19.25
2022-12-22T05:58:26.766Z,13.48
2022-12-22T06:00:57.058Z,17.73
2022-12-22T06:03:23.741Z,10.15
2022-12-22T06:05:50.892Z,8.10
2022-12-22T06:08:17.363Z,8.68
2022-12-22T06:10:43.793Z,27.52
2022-12-22T06:13:10.173Z,20.13
2022-12-22T06:15:36.688Z,27.20
2022-12-22T06:18:03.141Z,25.67
2022-12-22T06:20:29.515Z,19.45
2022-12-22T06:22:55.912Z,21.27
2022-12-22T06:25:22.290Z,16.45
2022-12-22T06:27:48.693Z,24.23
2022-12-22T06:30:15.915Z,21.30
2022-12-22T06:32:42.381Z,16.50
2022-12-22T06:35:09.811Z,10.25
2022-12-22T06:37:36.197Z,10.75
2022-12-22T06:40:02.832Z,12.95
2022-12-22T06:42:47.918Z,14.43
2022-12-22T06:45:14.279Z,15.02
2022-12-22T06:47:40.692Z,16.55
2022-12-22T06:50:07.705Z,16.83
2022-12-22T06:52:34.066Z,16.25
2022-12-22T06:55:02.108Z,15.02
2022-12-22T06:57:28.856Z,15.25
2022-12-22T06:59:57.634Z,23.35
2022-12-22T07:02:24.719Z,23.40
2022-12-22T07:04:51.385Z,25.58
2022-12-22T07:07:17.763Z,43.17
2022-12-22T07:09:44.258Z,27.48
2022-12-22T07:12:10.610Z,17.88
2022-12-22T07:14:37.037Z,14.93
2022-12-22T07:17:03.682Z,12.48
2022-12-22T07:19:30.063Z,14.50
2022-12-22T07:21:56.427Z,14.40
2022-12-22T07:24:25.704Z,16.35
2022-12-22T07:26:52.219Z,16.60
2022-12-22T07:29:18.603Z,17.33
2022-12-22T07:31:45.014Z,16.27
2022-12-22T07:34:11.843Z,15.60
2022-12-22T07:36:38.201Z,14.20
2022-12-22T07:39:04.604Z,13.35
2022-12-22T07:41:49.441Z,12.90
2022-12-22T07:44:15.813Z,14.10
2022-12-22T07:46:42.204Z,14.30
2022-12-22T07:49:28.400Z,14.07
2022-12-22T07:51:56.967Z,14.52
2022-12-22T07:54:23.686Z,15.25
2022-12-22T07:56:50.044Z,16.33
2022-12-22T07:59:16.463Z,16.42
2022-12-22T08:01:43.134Z,16.88
2022-12-22T08:04:10.198Z,18.33
2022-12-22T08:06:36.674Z,17.52
2022-12-22T08:09:04.380Z,19.10
2022-12-22T08:11:30.874Z,18.48
2022-12-22T08:14:01.183Z,21.05
2022-12-22T08:16:28.486Z,22.05
2022-12-22T08:18:54.888Z,22.08
2022-12-22T08:21:21.293Z,22.50
2022-12-22T08:23:47.650Z,23.25
2022-12-22T08:26:15.199Z,23.60
2022-12-22T08:28:45.202Z,24.30
2022-12-22T08:31:11.622Z,24.33
2022-12-22T08:33:38.069Z,27.17
2022-12-22T08:36:08.348Z,28.88
2022-12-22T08:38:36.272Z,29.52
2022-12-22T08:41:02.719Z,28.77
2022-12-22T08:43:30.482Z,29.17
2022-12-22T08:45:56.853Z,28.67
2022-12-22T08:48:23.201Z,27.63
2022-12-22T08:50:49.573Z,26.65
2022-12-22T08:53:37.663Z,25.60
2022-12-22T08:56:02.918Z,25.55
2022-12-22T08:58:29.274Z,26.55
2022-12-22T09:00:55.722Z,25.42
2022-12-22T09:03:22.190Z,25.35
2022-12-22T09:05:48.580Z,25.75
2022-12-22T09:08:15.034Z,25.35
2022-12-22T09:10:43.612Z,23.20
2022-12-22T09:13:11.007Z,22.02
2022-12-22T09:15:37.655Z,22.90
2022-12-22T09:18:04.235Z,23.20
2022-12-22T09:20:30.625Z,21.70
2022-12-22T09:22:56.969Z,21.35
2022-12-22T09:25:23.356Z,20.45
2022-12-22T09:27:49.708Z,19.98
2022-12-22T09:30:16.115Z,22.48
2022-12-22T09:32:42.648Z,18.83
2022-12-22T09:35:09.174Z,19.35
2022-12-22T09:37:35.580Z,18.15
2022-12-22T09:40:01.971Z,19.42
2022-12-22T09:42:30.533Z,20.02
2022-12-22T09:44:56.933Z,20.52
2022-12-22T09:47:32.278Z,24.00
2022-12-22T09:49:59.184Z,25.75
2022-12-22T09:52:34.584Z,27.63
2022-12-22T09:55:02.270Z,26.30
2022-12-22T09:57:32.300Z,27.15
2022-12-22T10:00:10.390Z,23.92
2022-12-22T10:02:48.832Z,24.38
2022-12-22T10:05:28.154Z,23.52
2022-12-22T10:08:01.092Z,22.17
2022-12-22T10:10:30.371Z,22.33
2022-12-22T10:13:01.788Z,21.98
2022-12-22T10:15:35.467Z,20.38
2022-12-22T10:18:19.380Z,23.73
2022-12-22T10:20:48.588Z,22.23
2022-12-22T10:23:21.759Z,23.45
2022-12-22T10:28:48.620Z,22.70
2022-12-22T10:31:22.348Z,21.80
2022-12-22T10:33:51.277Z,21.35
2022-12-22T10:36:29.121Z,20.75
2022-12-22T10:39:01.766Z,20.83
2022-12-22T10:41:38.303Z,21.55
2022-12-22T10:44:16.373Z,20.13
2022-12-22T10:46:46.343Z,21.13
2022-12-22T10:49:17.541Z,21.88
2022-12-22T10:51:45.964Z,21.80
2022-12-22T10:54:32.570Z,22.35
2022-12-22T10:57:14.894Z,21.88
2022-12-22T11:04:51.425Z,21.70
2022-12-22T11:07:18.050Z,20.02
2022-12-22T11:09:44.466Z,20.83
2022-12-22T11:12:26.549Z,21.08
2022-12-22T11:15:03.875Z,23.55
2022-12-22T11:17:45.522Z,22.35
2022-12-22T11:20:33.096Z,18.45
2022-12-22T11:23:08.166Z,21.98
2022-12-22T11:25:44.334Z,19.45
2022-12-22T11:28:29.263Z,19.08
2022-12-22T11:31:07.810Z,20.00
2022-12-22T11:34:06.133Z,20.80
2022-12-22T11:37:20.673Z,19.85
2022-12-22T11:39:51.863Z,19.20
2022-12-22T11:42:32.785Z,16.90
2022-12-22T11:45:25.025Z,19.85
2022-12-22T11:48:16.637Z,19.95
2022-12-22T11:51:02.231Z,19.17
2022-12-22T11:54:10.317Z,19.92
2022-12-22T11:56:46.843Z,17.52
2022-12-22T11:59:26.775Z,21.63
2022-12-22T12:02:43.726Z,20.15
2022-12-22T12:05:34.388Z,20.58
2022-12-22T12:08:29.094Z,19.77
2022-12-22T12:11:21.678Z,20.65
2022-12-22T12:16:46.098Z,17.48
2022-12-22T12:19:37.427Z,18.02
2022-12-22T12:22:11.690Z,18.17
2022-12-22T12:25:03.088Z,17.10
2022-12-22T12:27:58.764Z,17.60
2022-12-22T12:30:40.666Z,18.23
2022-12-22T12:33:34.888Z,15.85
2022-12-22T12:36:17.250Z,15.88
2022-12-22T12:41:56.487Z,16.20
2022-12-22T12:44:29.025Z,14.77
2022-12-22T12:47:04.299Z,15.48
2022-12-22T12:49:33.701Z,15.55
2022-12-22T12:52:10.693Z,16.23
2022-12-22T12:54:41.133Z,15.20
2022-12-22T12:57:07.447Z,16.33
2022-12-22T12:59:40.010Z,16.10
2022-12-22T13:02:28.854Z,16.75
2022-12-22T13:05:04.464Z,16.73
2022-12-22T13:08:08.435Z,16.85
2022-12-22T13:10:43.077Z,17.15
2022-12-22T13:13:21.411Z,18.63
2022-12-22T13:16:03.985Z,18.88
2022-12-22T13:18:33.111Z,22.33
2022-12-22T13:24:25.179Z,22.05
2022-12-22T13:26:55.083Z,23.92
2022-12-22T13:29:42.784Z,21.45
2022-12-22T13:32:22.860Z,20.90
2022-12-22T13:35:33.882Z,21.25
2022-12-22T13:38:01.986Z,21.95
2022-12-22T13:40:31.034Z,23.02
2022-12-22T13:43:03.070Z,21.55
2022-12-22T13:45:33.322Z,19.40
2022-12-22T13:48:00.954Z,17.45
2022-12-22T13:50:37.293Z,14.82
2022-12-22T13:53:07.325Z,14.18
2022-12-22T13:55:34.040Z,13.25
2022-12-22T13:58:07.693Z,14.40
2022-12-22T14:00:34.791Z,14.15
2022-12-22T14:03:01.343Z,12.75
2022-12-22T14:05:32.334Z,13.32
2022-12-22T14:08:04.633Z,12.75
2022-12-22T14:10:43.725Z,13.73
2022-12-22T14:13:18.935Z,13.90
2022-12-22T14:15:45.598Z,16.08
2022-12-22T14:18:25.826Z,16.35
2022-12-22T14:20:52.562Z,16.42
2022-12-22T14:23:25.606Z,17.10
2022-12-22T14:25:53.095Z,16.50
2022-12-22T14:28:26.118Z,16.02
2022-12-22T14:30:54.643Z,16.40
2022-12-22T14:33:26.156Z,17.30
2022-12-22T14:36:14.689Z,16.42
2022-12-22T14:38:43.909Z,16.48
2022-12-22T14:41:41.369Z,16.48
2022-12-22T14:44:18.582Z,16.08
2022-12-22T14:46:45.895Z,17.65
2022-12-22T14:49:18.329Z,16.88
2022-12-22T14:52:01.248Z,17.42
2022-12-22T14:54:28.348Z,17.80
2022-12-22T14:57:08.476Z,18.52
2022-12-22T14:59:39.647Z,16.10
2022-12-22T15:02:26.310Z,17.45
2022-12-22T15:05:16.298Z,17.25
2022-12-22T15:10:42.179Z,16.42
2022-12-22T15:13:27.226Z,17.92
2022-12-22T15:15:53.741Z,16.55
2022-12-22T15:18:25.373Z,16.73
2022-12-22T15:20:52.046Z,16.50
2022-12-22T15:23:18.400Z,17.02
2022-12-22T15:25:45.443Z,16.15
2022-12-22T15:28:11.805Z,16.48
2022-12-22T15:30:38.350Z,15.25
2022-12-22T15:33:10.599Z,16.77
2022-12-22T15:38:03.320Z,16.20
2022-12-22T15:40:29.690Z,15.90
2022-12-22T15:42:56.025Z,16.10
2022-12-22T15:45:22.740Z,16.23
2022-12-22T15:47:51.484Z,15.50
2022-12-22T15:50:20.823Z,15.48
2022-12-22T15:52:53.267Z,14.90
2022-12-22T15:55:20.295Z,14.88
2022-12-22T15:57:50.143Z,14.05
2022-12-22T16:00:17.715Z,15.18
2022-12-22T16:02:44.200Z,15.15
2022-12-22T16:05:11.355Z,13.77
2022-12-22T16:07:39.187Z,14.82
2022-12-22T16:10:07.500Z,14.85
2022-12-22T16:12:34.523Z,15.80
2022-12-22T16:15:01.756Z,15.57
2022-12-22T16:17:29.205Z,15.20
2022-12-22T16:19:55.571Z,15.10
2022-12-22T16:22:29.824Z,16.05
2022-12-22T16:24:56.249Z,15.27
2022-12-22T16:27:22.627Z,16.88
2022-12-22T16:29:52.869Z,15.13
2022-12-22T16:32:23.735Z,16.00
2022-12-22T16:34:50.117Z,16.00
2022-12-22T16:37:16.472Z,16.55
2022-12-22T16:39:42.915Z,15.77
2022-12-22T16:45:00.992Z,14.82
2022-12-22T16:47:31.498Z,15.63
2022-12-22T16:49:58.523Z,16.80
2022-12-22T16:52:28.365Z,15.48
2022-12-22T16:54:54.813Z,16.48
2022-12-22T16:57:21.186Z,16.35
2022-12-22T16:59:47.609Z,17.63
2022-12-22T17:02:27.947Z,17.58
2022-12-22T17:04:55.991Z,17.70
2022-12-22T17:07:22.585Z,17.25
2022-12-22T17:09:52.838Z,16.77
2022-12-22T17:12:22.188Z,17.55
2022-12-22T17:14:49.022Z,17.48
2022-12-22T17:17:17.461Z,17.40
2022-12-22T17:19:44.747Z,19.23
2022-12-22T17:22:27.773Z,17.95
2022-12-22T17:24:56.051Z,18.50
2022-12-22T17:27:25.631Z,17.90
2022-12-22T17:29:52.638Z,17.73
2022-12-22T17:32:19.590Z,18.27
2022-12-22T17:34:46.251Z,18.83
2022-12-22T17:37:14.849Z,17.08
2022-12-22T17:39:42.170Z,15.98
2022-12-22T17:42:19.917Z,18.33
2022-12-22T17:44:46.991Z,18.25
2022-12-22T17:47:14.868Z,16.55
2022-12-22T17:49:42.394Z,17.50
2022-12-22T17:52:23.027Z,17.75
2022-12-22T17:54:50.817Z,18.13
2022-12-22T17:57:36.290Z,17.90
2022-12-22T18:00:03.378Z,18.90
2022-12-22T18:02:30.091Z,18.90
2022-12-22T18:04:56.633Z,19.20
2022-12-22T18:07:24.466Z,19.35
2022-12-22T18:09:54.411Z,21.30
2022-12-22T18:12:23.004Z,17.10
2022-12-22T18:14:49.747Z,17.02
2022-12-22T18:17:35.209Z,17.77
2022-12-22T18:20:02.426Z,17.20
2022-12-22T18:22:29.814Z,16.17
2022-12-22T18:24:56.617Z,16.52
2022-12-22T18:27:23.426Z,17.45
2022-12-22T18:29:49.846Z,16.75
2022-12-22T18:32:22.888Z,16.50
2022-12-22T18:34:52.944Z,15.77
2022-12-22T18:37:19.308Z,15.38
2022-12-22T18:39:45.999Z,14.45
2022-12-22T18:42:20.205Z,14.57
2022-12-22T18:44:46.856Z,13.75
2022-12-22T18:47:13.353Z,12.77
2022-12-22T18:49:39.825Z,12.93
2022-12-22T18:52:21.621Z,12.70
2022-12-22T18:54:48.709Z,11.25
2022-12-22T18:57:18.129Z,10.73
2022-12-22T18:59:44.969Z,10.38
2022-12-22T19:02:23.763Z,9.80
2022-12-22T19:04:50.552Z,10.63
2022-12-22T19:07:19.707Z,9.70
2022-12-22T19:09:46.471Z,9.95
2022-12-22T19:12:18.297Z,10.43
2022-12-22T19:14:48.155Z,10.35
2022-12-22T19:17:17.109Z,8.65
2022-12-22T19:19:43.490Z,9.40
2022-12-22T19:22:13.984Z,8.05
2022-12-22T19:24:41.459Z,8.50
2022-12-22T19:27:14.504Z,8.40
2022-12-22T19:29:40.875Z,10.30
2022-12-22T19:32:16.206Z,9.20
2022-12-22T19:34:42.777Z,9.20
2022-12-22T19:37:09.513Z,8.48
2022-12-22T19:39:35.869Z,8.27
2022-12-22T19:42:02.225Z,9.23
2022-12-22T19:44:30.314Z,9.88
2022-12-22T19:46:59.132Z,9.52
2022-12-22T19:49:27.254Z,10.48
2022-12-22T19:51:57.792Z,8.98
2022-12-22T19:54:24.396Z,9.52
2022-12-22T19:56:52.631Z,8.88
2022-12-22T19:59:40.382Z,9.18
2022-12-22T20:02:25.532Z,7.88
2022-12-22T20:04:52.611Z,8.13
2022-12-22T20:07:20.564Z,7.13
2022-12-22T20:09:46.999Z,8.32
2022-12-22T20:12:29.830Z,6.65
2022-12-22T20:14:56.282Z,7.38
2022-12-22T20:17:22.711Z,6.60
2022-12-22T20:19:49.114Z,6.20
2022-12-22T20:22:16.823Z,6.32
2022-12-22T20:24:44.116Z,6.97
2022-12-22T20:27:23.986Z,5.80
2022-12-22T20:29:50.453Z,7.22
2022-12-22T20:32:20.950Z,6.20
2022-12-22T20:34:51.997Z,6.75
2022-12-22T20:37:18.769Z,6.90
2022-12-22T20:39:45.392Z,7.07
2022-12-22T20:42:19.190Z,6.65
2022-12-22T20:45:02.191Z,6.95
2022-12-22T20:47:30.106Z,7.15
2022-12-22T20:49:56.544Z,7.40
2022-12-22T20:52:22.903Z,7.72
2022-12-22T20:54:49.293Z,7.28
2022-12-22T20:57:16.270Z,7.80
2022-12-22T20:59:43.462Z,9.02
2022-12-22T21:02:21.917Z,7.40
2022-12-22T21:04:48.562Z,7.25
2022-12-22T21:07:15.275Z,7.82
2022-12-22T21:09:41.997Z,8.90
2022-12-22T21:12:08.357Z,7.97
2022-12-22T21:14:34.748Z,9.30
2022-12-22T21:17:01.236Z,8.13
2022-12-22T21:19:27.833Z,8.57
2022-12-22T21:21:54.711Z,7.78
2022-12-22T21:24:21.066Z,7.78
2022-12-22T21:26:49.498Z,7.88
2022-12-22T21:29:21.994Z,8.50
2022-12-22T21:31:48.353Z,7.88
2022-12-22T21:34:14.733Z,8.70
2022-12-22T21:36:43.537Z,7.03
2022-12-22T21:39:19.341Z,7.78
2022-12-22T21:42:00.889Z,7.35
2022-12-22T21:44:32.409Z,7.32
2022-12-22T21:46:59.193Z,6.53
2022-12-22T21:49:27.955Z,8.07
2022-12-22T21:51:54.665Z,7.85
2022-12-22T21:54:22.682Z,8.63
2022-12-22T21:56:50.107Z,8.32
2022-12-22T21:59:16.703Z,8.63
2022-12-22T22:01:44.806Z,8.10
2022-12-22T22:04:11.614Z,8.48
2022-12-22T22:06:38.021Z,8.95
2022-12-22T22:09:05.526Z,8.43
2022-12-22T22:11:32.064Z,9.25
2022-12-22T22:13:58.458Z,9.07
2022-12-22T22:16:25.234Z,9.10
2022-12-22T22:18:51.703Z,9.60
2022-12-22T22:21:18.380Z,10.75
2022-12-22T22:23:44.754Z,9.98
2022-12-22T22:26:11.349Z,10.18
2022-12-22T22:28:38.007Z,9.90
2022-12-22T22:31:11.145Z,9.82
2022-12-22T22:33:37.640Z,9.70
2022-12-22T22:36:08.107Z,10.10
2022-12-22T22:38:34.870Z,9.70
2022-12-22T22:41:01.301Z,9.13
2022-12-22T22:43:27.684Z,9.57
2022-12-22T22:45:54.517Z,12.13
2022-12-22T22:48:22.405Z,8.88
2022-12-22T22:50:49.313Z,8.30
2022-12-22T22:53:15.805Z,9.85
2022-12-22T22:55:42.178Z,9.55
2022-12-22T22:58:11.141Z,9.50
2022-12-22T23:00:38.409Z,9.50
2022-12-22T23:03:05.066Z,9.93
2022-12-22T23:05:31.556Z,10.10
2022-12-22T23:07:57.916Z,9.15
2022-12-22T23:10:24.285Z,10.48
2022-12-22T23:12:50.666Z,9.43
2022-12-22T23:15:17.097Z,9.38
2022-12-22T23:17:43.553Z,9.70
2022-12-22T23:20:10.058Z,9.18
2022-12-22T23:22:36.491Z,9.93
2022-12-22T23:25:02.885Z,9.45
2022-12-22T23:27:30.235Z,9.00
2022-12-22T23:29:56.624Z,9.60
2022-12-22T23:32:23.535Z,9.85
2022-12-22T23:34:49.910Z,8.48
2022-12-22T23:37:19.554Z,8.65
2022-12-22T23:39:46.564Z,9.82
2022-12-22T23:42:12.939Z,7.95
2022-12-22T23:44:39.375Z,8.95
2022-12-22T23:47:05.941Z,8.70
2022-12-22T23:49:32.319Z,9.55
2022-12-22T23:51:58.694Z,8.55
2022-12-22T23:54:25.070Z,10.00
2022-12-22T23:56:51.583Z,9.20
2022-12-22T23:59:17.941Z,9.15
